Currently 78°F in Pinon Hills, California, USA
78°F
79°F / 54°F
4 mph SW
0.00"
Monday, October 16, 2017 2:57 PM PDT

Pinon Hills, California Climate Summary
Typical September Day

Normal High:    84.0°F (28.9°C)
Normal Low:    60.2°F (15.6°C)
Average:    71.7°F (22.1°C)

Hour    Temperature    Wind Speed    Humidity
12:00 AM    66°F (19°C)    2 mph    42%
1:00 AM    65°F (18°C)    2 mph    43%
2:00 AM    64°F (18°C)    2 mph    43%
3:00 AM    64°F (18°C)    2 mph    44%
4:00 AM    63°F (17°C)    2 mph    44%
5:00 AM    63°F (17°C)    2 mph    45%
6:00 AM    62°F (17°C)    2 mph    45%
7:00 AM    63°F (17°C)    1 mph    45%
8:00 AM    69°F (20°C)    1 mph    39%
9:00 AM    73°F (23°C)    2 mph    34%
10:00 AM    76°F (24°C)    2 mph    31%
11:00 AM    78°F (25°C)    2 mph    28%
12:00 PM    80°F (26°C)    3 mph    25%
1:00 PM    81°F (27°C)    3 mph    23%
2:00 PM    82°F (28°C)    4 mph    22%
3:00 PM    82°F (28°C)    4 mph    21%
4:00 PM    82°F (28°C)    4 mph    22%
5:00 PM    81°F (27°C)    4 mph    22%
6:00 PM    79°F (26°C)    4 mph    25%
7:00 PM    75°F (24°C)    3 mph    30%
8:00 PM    71°F (22°C)    3 mph    34%
9:00 PM    70°F (21°C)    2 mph    37%
10:00 PM    68°F (20°C)    2 mph    39%
11:00 PM    66°F (19°C)    2 mph    41%
 

The Pinon Hills, California weather pages are a service of WeatherCurrents.
Copyright ©Mon Oct 16 14:58:22 PDT 2017  WeatherCurrents. All rights reserved. - Submit questions and comments - Privacy Policy